createdAt,value
2018-04-23T00:01:11.029Z,20.30
2018-04-23T00:03:39.322Z,20.30
2018-04-23T00:06:07.604Z,20.20
2018-04-23T00:08:35.908Z,20.20
2018-04-23T00:11:03.423Z,20.20
2018-04-23T00:13:30.951Z,20.20
2018-04-23T00:15:59.227Z,20.10
2018-04-23T00:18:27.516Z,20.10
2018-04-23T00:20:55.023Z,20.10
2018-04-23T00:23:22.553Z,20.10
2018-04-23T00:25:50.833Z,19.90
2018-04-23T00:28:18.359Z,19.90
2018-04-23T00:30:45.871Z,19.80
2018-04-23T00:33:13.382Z,19.80
2018-04-23T00:35:40.886Z,19.80
2018-04-23T00:38:08.410Z,19.80
2018-04-23T00:40:36.688Z,19.70
2018-04-23T00:43:04.993Z,19.80
2018-04-23T00:45:33.255Z,19.70
2018-04-23T00:48:00.772Z,19.70
2018-04-23T00:50:28.268Z,19.70
2018-04-23T00:53:07.740Z,19.70
2018-04-23T00:55:35.253Z,19.60
2018-04-23T00:58:02.780Z,19.50
2018-04-23T01:00:30.289Z,19.60
2018-04-23T01:02:58.565Z,19.50
2018-04-23T01:05:26.867Z,19.50
2018-04-23T01:07:55.132Z,19.50
2018-04-23T01:10:22.653Z,19.50
2018-04-23T01:12:50.168Z,19.50
2018-04-23T01:15:17.694Z,19.40
2018-04-23T01:17:45.200Z,19.40
2018-04-23T01:20:12.717Z,19.40
2018-04-23T01:22:40.980Z,19.40
2018-04-23T01:25:08.505Z,19.30
2018-04-23T01:27:36.003Z,19.40
2018-04-23T01:30:03.521Z,19.40
2018-04-23T01:32:31.019Z,19.40
2018-04-23T01:34:58.555Z,19.30
2018-04-23T01:37:26.829Z,19.20
2018-04-23T01:39:54.351Z,19.20
2018-04-23T01:42:21.858Z,19.30
2018-04-23T01:44:49.398Z,19.20
2018-04-23T01:47:16.910Z,19.20
2018-04-23T01:49:44.476Z,19.20
2018-04-23T01:52:11.975Z,19.20
2018-04-23T01:54:40.271Z,19.10
2018-04-23T01:57:07.773Z,19.10
2018-04-23T01:59:35.284Z,19.20
2018-04-23T02:02:02.788Z,19.10
2018-04-23T02:04:30.324Z,19.10
2018-04-23T02:06:57.855Z,19.10
2018-04-23T02:09:25.376Z,19.00
2018-04-23T02:11:52.906Z,19.10
2018-04-23T02:14:20.405Z,19.10
2018-04-23T02:16:47.935Z,19.20
2018-04-23T02:19:15.436Z,19.20
2018-04-23T02:21:42.956Z,19.20
2018-04-23T02:24:11.220Z,19.20
2018-04-23T02:26:38.747Z,19.20
2018-04-23T02:29:06.251Z,19.10
2018-04-23T02:31:33.785Z,19.20
2018-04-23T02:34:01.293Z,19.20
2018-04-23T02:36:28.824Z,19.20
2018-04-23T02:38:56.329Z,19.20
2018-04-23T02:41:23.850Z,19.20
2018-04-23T02:43:51.365Z,19.30
2018-04-23T02:46:18.876Z,19.30
2018-04-23T02:48:47.153Z,19.30
2018-04-23T02:51:15.443Z,19.30
2018-04-23T02:53:42.955Z,19.30
2018-04-23T02:56:10.476Z,19.30
2018-04-23T02:58:37.967Z,19.40
2018-04-23T03:01:06.385Z,19.20
2018-04-23T03:03:33.907Z,19.20
2018-04-23T03:06:01.424Z,19.20
2018-04-23T03:08:28.925Z,19.20
2018-04-23T03:10:56.448Z,19.30
2018-04-23T03:13:24.722Z,19.20
2018-04-23T03:15:53.026Z,19.20
2018-04-23T03:18:21.288Z,19.30
2018-04-23T03:20:48.802Z,19.20
2018-04-23T03:23:16.337Z,19.20
2018-04-23T03:25:43.835Z,19.20
2018-04-23T03:28:12.121Z,19.10
2018-04-23T03:30:40.397Z,19.10
2018-04-23T03:33:08.683Z,19.10
2018-04-23T03:35:36.948Z,19.10
2018-04-23T03:38:04.475Z,19.10
2018-04-23T03:40:31.975Z,19.20
2018-04-23T03:42:59.497Z,19.10
2018-04-23T03:45:27.759Z,19.10
2018-04-23T03:47:55.295Z,19.10
2018-04-23T03:50:22.797Z,19.10
2018-04-23T03:52:50.316Z,19.10
2018-04-23T03:55:17.814Z,19.10
2018-04-23T03:57:45.363Z,19.10
2018-04-23T04:00:12.855Z,19.10
2018-04-23T04:02:40.379Z,19.10
2018-04-23T04:05:08.646Z,19.10
2018-04-23T04:07:36.171Z,19.10
2018-04-23T04:10:03.677Z,19.00
2018-04-23T04:12:43.130Z,19.00
2018-04-23T04:15:22.489Z,19.00
2018-04-23T04:21:05.700Z,18.90
2018-04-23T04:23:33.994Z,18.90
2018-04-23T04:26:01.501Z,18.90
2018-04-23T04:28:29.027Z,18.90
2018-04-23T04:30:57.299Z,18.80
2018-04-23T04:33:24.831Z,18.80
2018-04-23T04:35:52.319Z,18.80
2018-04-23T04:38:19.855Z,18.80
2018-04-23T04:40:47.363Z,18.80
2018-04-23T04:43:14.896Z,18.80
2018-04-23T04:45:42.405Z,18.80
2018-04-23T04:48:09.934Z,18.80
2018-04-23T04:50:37.436Z,18.70
2018-04-23T04:53:04.956Z,18.80
2018-04-23T04:55:32.452Z,18.70
2018-04-23T04:57:59.951Z,18.80
2018-04-23T05:00:27.472Z,18.70
2018-04-23T05:02:55.731Z,18.70
2018-04-23T05:05:23.251Z,18.70
2018-04-23T05:07:50.744Z,18.70
2018-04-23T05:10:18.267Z,18.70
2018-04-23T05:12:46.549Z,18.80
2018-04-23T05:15:14.065Z,18.80
2018-04-23T05:17:41.562Z,18.90
2018-04-23T05:20:09.083Z,19.00
2018-04-23T05:22:37.353Z,19.40
2018-04-23T05:25:04.880Z,19.40
2018-04-23T05:27:32.374Z,19.60
2018-04-23T05:29:59.961Z,19.90
2018-04-23T05:32:28.381Z,20.10
2018-04-23T05:34:56.683Z,20.60
2018-04-23T05:37:24.203Z,20.60
2018-04-23T05:39:51.753Z,20.70
2018-04-23T05:42:19.283Z,20.60
2018-04-23T05:44:47.596Z,20.60
2018-04-23T05:47:15.322Z,20.60
2018-04-23T05:49:42.872Z,20.40
2018-04-23T05:52:10.369Z,20.20
2018-04-23T05:54:38.233Z,20.20
2018-04-23T05:57:06.640Z,20.10
2018-04-23T05:59:34.199Z,20.00
2018-04-23T06:02:01.705Z,20.00
2018-04-23T06:04:29.964Z,20.00
2018-04-23T06:06:57.488Z,20.00
2018-04-23T06:09:24.986Z,20.00
2018-04-23T06:11:52.503Z,20.00
2018-04-23T06:14:19.993Z,20.00
2018-04-23T06:16:47.569Z,19.90
2018-04-23T06:19:15.081Z,20.00
2018-04-23T06:21:42.628Z,20.00
2018-04-23T06:24:10.133Z,20.10
2018-04-23T06:26:37.665Z,20.10
2018-04-23T06:29:05.178Z,20.20
2018-04-23T06:31:32.709Z,20.20
2018-04-23T06:34:00.205Z,20.30
2018-04-23T06:36:27.759Z,20.30
2018-04-23T06:38:56.053Z,20.50
2018-04-23T06:41:23.628Z,20.50
2018-04-23T06:43:51.158Z,20.50
2018-04-23T06:46:19.492Z,20.70
2018-04-23T06:48:46.992Z,20.60
2018-04-23T06:51:14.497Z,20.60
2018-04-23T06:53:42.015Z,20.70
2018-04-23T06:56:09.546Z,20.70
2018-04-23T06:58:37.059Z,20.60
2018-04-23T07:01:04.625Z,20.60
2018-04-23T07:03:32.136Z,20.80
2018-04-23T07:06:00.430Z,21.30
2018-04-23T07:08:28.747Z,21.50
2018-04-23T07:10:56.340Z,21.50
2018-04-23T07:13:24.734Z,21.80
2018-04-23T07:15:52.273Z,21.80
2018-04-23T07:18:19.855Z,21.80
2018-04-23T07:20:47.384Z,22.00
2018-04-23T07:23:15.697Z,22.20
2018-04-23T07:25:43.214Z,21.80
2018-04-23T07:28:10.739Z,21.30
2018-04-23T07:30:38.585Z,21.10
2018-04-23T07:33:06.137Z,20.70
2018-04-23T07:35:33.647Z,20.70
2018-04-23T07:38:01.941Z,20.60
2018-04-23T07:40:30.334Z,20.80
2018-04-23T07:42:57.862Z,20.70
2018-04-23T07:45:25.400Z,20.90
2018-04-23T07:47:52.946Z,20.60
2018-04-23T07:50:21.215Z,20.20
2018-04-23T07:52:48.734Z,20.20
2018-04-23T07:55:16.245Z,20.40
2018-04-23T07:57:43.778Z,19.90
2018-04-23T08:00:11.300Z,19.80
2018-04-23T08:02:38.825Z,20.00
2018-04-23T08:05:07.075Z,20.10
2018-04-23T08:07:35.717Z,19.80
2018-04-23T08:10:03.755Z,19.70
2018-04-23T08:12:32.770Z,19.60
2018-04-23T08:15:00.700Z,19.40
2018-04-23T08:17:28.753Z,19.40
2018-04-23T08:19:56.284Z,19.20
2018-04-23T08:22:23.802Z,19.10
2018-04-23T08:24:53.364Z,19.00
2018-04-23T08:27:20.912Z,18.70
2018-04-23T08:29:48.467Z,18.50
2018-04-23T08:32:15.986Z,18.20
2018-04-23T08:34:43.508Z,18.10
2018-04-23T08:37:11.014Z,17.80
2018-04-23T08:39:42.014Z,17.50
2018-04-23T08:42:10.276Z,17.40
2018-04-23T08:44:37.791Z,17.40
2018-04-23T08:47:05.307Z,17.20
2018-04-23T08:49:32.824Z,17.00
2018-04-23T08:52:01.092Z,16.60
2018-04-23T08:54:28.625Z,16.60
2018-04-23T08:56:56.166Z,16.50
2018-04-23T08:59:23.680Z,16.40
2018-04-23T09:01:51.176Z,16.30
2018-04-23T09:04:18.699Z,16.30
2018-04-23T09:06:46.222Z,16.20
2018-04-23T09:09:13.787Z,16.00
2018-04-23T09:11:41.280Z,15.90
2018-04-23T09:14:09.575Z,15.80
2018-04-23T09:16:37.848Z,15.80
2018-04-23T09:19:05.392Z,15.80
2018-04-23T09:21:32.887Z,15.90
2018-04-23T09:24:00.407Z,16.20
2018-04-23T09:26:27.900Z,16.40
2018-04-23T09:28:55.428Z,16.70
2018-04-23T09:31:23.683Z,17.00
2018-04-23T09:33:51.256Z,17.00
2018-04-23T09:36:18.776Z,17.20
2018-04-23T09:38:52.309Z,17.40
2018-04-23T09:41:19.852Z,17.70
2018-04-23T09:43:47.370Z,17.90
2018-04-23T09:46:14.921Z,18.10
2018-04-23T09:48:43.503Z,18.40
2018-04-23T09:51:12.246Z,18.50
2018-04-23T09:53:39.762Z,18.70
2018-04-23T09:56:07.303Z,19.00
2018-04-23T09:58:35.611Z,19.10
2018-04-23T10:01:08.882Z,19.00
2018-04-23T10:03:42.313Z,19.00
2018-04-23T10:06:10.649Z,19.00
2018-04-23T10:08:38.179Z,18.90
2018-04-23T10:11:06.506Z,18.80
2018-04-23T10:13:34.068Z,18.80
2018-04-23T10:16:01.605Z,18.90
2018-04-23T10:18:29.925Z,18.70
2018-04-23T10:20:57.472Z,18.70
2018-04-23T10:23:25.765Z,18.90
2018-04-23T10:25:54.156Z,19.00
2018-04-23T10:28:22.620Z,19.00
2018-04-23T10:30:50.176Z,19.00
2018-04-23T10:33:17.690Z,19.00
2018-04-23T10:35:45.516Z,19.10
2018-04-23T10:38:13.061Z,19.10
2018-04-23T10:40:40.623Z,19.10
2018-04-23T10:43:08.971Z,18.90
2018-04-23T10:45:36.516Z,18.90
2018-04-23T10:48:04.087Z,18.90
2018-04-23T10:50:34.629Z,18.80
2018-04-23T10:53:02.188Z,18.60
2018-04-23T10:55:29.811Z,18.90
2018-04-23T10:57:57.322Z,19.00
2018-04-23T11:00:24.884Z,19.00
2018-04-23T11:02:53.665Z,19.60
2018-04-23T11:05:21.174Z,19.60
2018-04-23T11:08:03.078Z,19.70
2018-04-23T11:10:30.617Z,20.10
2018-04-23T11:12:59.130Z,20.50
2018-04-23T11:15:27.411Z,20.60
2018-04-23T11:17:55.117Z,20.60
2018-04-23T11:20:22.633Z,20.60
2018-04-23T11:22:50.164Z,20.40
2018-04-23T11:25:17.681Z,20.40
2018-04-23T11:27:45.226Z,20.80
2018-04-23T11:30:14.474Z,20.70
2018-04-23T11:32:42.169Z,20.70
2018-04-23T11:35:10.457Z,21.10
2018-04-23T11:37:38.745Z,21.00
2018-04-23T11:40:06.279Z,21.00
2018-04-23T11:42:33.840Z,21.00
2018-04-23T11:45:01.450Z,20.90
2018-04-23T11:47:28.996Z,21.10
2018-04-23T11:49:56.519Z,20.90
2018-04-23T11:52:24.082Z,20.70
2018-04-23T11:54:53.375Z,20.50
2018-04-23T11:57:20.930Z,20.40
2018-04-23T11:59:49.232Z,20.30
2018-04-23T12:02:17.130Z,20.30
2018-04-23T12:04:44.687Z,20.20
2018-04-23T12:07:12.256Z,20.10
2018-04-23T12:09:39.796Z,20.10
2018-04-23T12:12:07.345Z,20.00
2018-04-23T12:14:34.865Z,19.90
2018-04-23T12:17:02.390Z,19.80
2018-04-23T12:19:29.915Z,19.60
2018-04-23T12:21:57.438Z,19.40
2018-04-23T12:24:24.983Z,19.20
2018-04-23T12:26:53.267Z,18.90
2018-04-23T12:29:21.557Z,18.70
2018-04-23T12:31:49.827Z,18.80
2018-04-23T12:34:17.383Z,18.70
2018-04-23T12:36:44.889Z,18.80
2018-04-23T12:39:12.438Z,18.80
2018-04-23T12:41:39.952Z,18.70
2018-04-23T12:44:07.495Z,18.60
2018-04-23T12:46:35.006Z,18.50
2018-04-23T12:49:02.568Z,18.30
2018-04-23T12:51:30.085Z,18.40
2018-04-23T12:53:57.631Z,18.50
2018-04-23T12:56:25.148Z,18.50
2018-04-23T12:58:52.678Z,18.40
2018-04-23T13:01:20.188Z,18.50
2018-04-23T13:03:47.742Z,18.70
2018-04-23T13:06:15.250Z,18.80
2018-04-23T13:08:43.564Z,19.00
2018-04-23T13:11:11.089Z,19.10
2018-04-23T13:13:38.621Z,19.20
2018-04-23T13:16:06.145Z,19.40
2018-04-23T13:18:33.669Z,19.40
2018-04-23T13:21:01.194Z,19.40
2018-04-23T13:23:29.499Z,19.50
2018-04-23T13:25:57.772Z,19.30
2018-04-23T13:28:25.281Z,19.30
2018-04-23T13:30:52.813Z,19.50
2018-04-23T13:33:21.111Z,19.60
2018-04-23T13:35:49.424Z,19.70
2018-04-23T13:38:16.954Z,19.70
2018-04-23T13:40:44.517Z,20.30
2018-04-23T13:43:12.041Z,20.50
2018-04-23T13:45:39.638Z,20.70
2018-04-23T13:48:07.972Z,20.20
2018-04-23T13:50:36.278Z,20.60
2018-04-23T13:53:04.543Z,20.90
2018-04-23T13:55:32.925Z,21.20
2018-04-23T13:58:00.397Z,21.20
2018-04-23T14:00:27.940Z,21.10
2018-04-23T14:02:55.457Z,21.00
2018-04-23T14:05:23.015Z,21.00
2018-04-23T14:07:50.530Z,21.10
2018-04-23T14:10:18.075Z,21.00
2018-04-23T14:12:46.353Z,21.20
2018-04-23T14:15:13.887Z,21.20
2018-04-23T14:17:41.446Z,21.10
2018-04-23T14:22:44.462Z,21.20
2018-04-23T14:25:12.027Z,21.20
2018-04-23T14:27:39.549Z,21.30
2018-04-23T14:30:08.577Z,21.40
2018-04-23T14:32:36.914Z,21.60
2018-04-23T14:35:04.490Z,21.60
2018-04-23T14:37:32.129Z,21.50
2018-04-23T14:40:00.448Z,21.60
2018-04-23T14:42:28.040Z,21.60
2018-04-23T14:44:55.624Z,21.70
2018-04-23T14:47:23.209Z,21.90
2018-04-23T14:49:50.786Z,22.00
2018-04-23T14:52:18.339Z,21.90
2018-04-23T14:54:46.064Z,22.00
2018-04-23T14:57:14.420Z,21.80
2018-04-23T14:59:42.746Z,21.60
2018-04-23T15:02:10.439Z,21.60
2018-04-23T15:04:37.990Z,21.60
2018-04-23T15:07:06.288Z,21.80
2018-04-23T15:09:34.128Z,21.80
2018-04-23T15:12:01.700Z,21.80
2018-04-23T15:14:29.255Z,21.80
2018-04-23T15:16:56.802Z,21.90
2018-04-23T15:19:25.109Z,21.90
2018-04-23T15:21:52.665Z,21.80
2018-04-23T15:24:20.214Z,21.70
2018-04-23T15:26:47.859Z,21.40
2018-04-23T15:29:15.433Z,21.40
2018-04-23T15:31:42.981Z,21.40
2018-04-23T15:34:10.553Z,21.30
2018-04-23T15:36:38.208Z,21.20
2018-04-23T15:39:06.482Z,21.00
2018-04-23T15:41:34.075Z,21.20
2018-04-23T15:44:01.601Z,21.00
2018-04-23T15:46:29.922Z,20.80
2018-04-23T15:48:57.501Z,20.80
2018-04-23T15:51:25.069Z,20.80
2018-04-23T15:53:52.598Z,20.80
2018-04-23T15:56:20.899Z,20.60
2018-04-23T15:58:49.247Z,20.40
2018-04-23T16:01:16.788Z,20.40
2018-04-23T16:03:44.372Z,20.30
2018-04-23T16:06:11.889Z,20.30
2018-04-23T16:08:39.441Z,20.30
2018-04-23T16:11:06.976Z,20.10
2018-04-23T16:13:34.529Z,20.00
2018-04-23T16:16:02.806Z,19.90
2018-04-23T16:18:31.134Z,19.90
2018-04-23T16:20:58.655Z,19.90
2018-04-23T16:23:26.188Z,19.90
2018-04-23T16:25:53.735Z,20.00
2018-04-23T16:28:21.288Z,20.00
2018-04-23T16:30:49.577Z,19.90
2018-04-23T16:33:17.908Z,20.00
2018-04-23T16:35:45.435Z,19.90
2018-04-23T16:38:12.965Z,19.90
2018-04-23T16:40:40.481Z,20.00
2018-04-23T16:43:08.769Z,19.80
2018-04-23T16:45:37.042Z,19.70
2018-04-23T16:48:04.575Z,19.70
2018-04-23T16:50:32.082Z,19.60
2018-04-23T16:52:59.627Z,19.60
2018-04-23T16:55:28.230Z,19.60
2018-04-23T16:57:55.771Z,19.60
2018-04-23T17:00:23.289Z,19.50
2018-04-23T17:02:50.891Z,19.50
2018-04-23T17:05:18.371Z,19.40
2018-04-23T17:07:46.714Z,19.30
2018-04-23T17:10:14.256Z,19.30
2018-04-23T17:12:41.789Z,19.20
2018-04-23T17:15:09.396Z,19.10
2018-04-23T17:17:36.915Z,19.10
2018-04-23T17:20:04.459Z,19.10
2018-04-23T17:22:31.981Z,19.00
2018-04-23T17:25:00.305Z,18.80
2018-04-23T17:27:27.817Z,18.80
2018-04-23T17:29:55.357Z,18.70
2018-04-23T17:32:22.901Z,18.70
2018-04-23T17:34:51.215Z,18.80
2018-04-23T17:37:18.770Z,18.80
2018-04-23T17:39:46.327Z,18.70
2018-04-23T17:42:14.608Z,18.70
2018-04-23T17:44:42.133Z,18.60
2018-04-23T17:47:09.646Z,18.60
2018-04-23T17:49:37.185Z,18.60
2018-04-23T17:52:04.688Z,18.50
2018-04-23T17:54:32.233Z,18.50
2018-04-23T17:56:59.733Z,18.40
2018-04-23T17:59:28.070Z,18.50
2018-04-23T18:01:55.573Z,18.50
2018-04-23T18:04:23.139Z,18.50
2018-04-23T18:06:50.654Z,18.50
2018-04-23T18:09:18.962Z,18.40
2018-04-23T18:11:46.483Z,18.40
2018-04-23T18:14:14.018Z,18.40
2018-04-23T18:16:41.521Z,18.30
2018-04-23T18:19:09.039Z,18.30
2018-04-23T18:21:36.603Z,18.20
2018-04-23T18:24:04.904Z,18.20
2018-04-23T18:26:32.446Z,18.20
2018-04-23T18:28:59.972Z,18.20
2018-04-23T18:31:27.553Z,18.20
2018-04-23T18:33:55.042Z,18.10
2018-04-23T18:36:22.585Z,18.10
2018-04-23T18:38:50.109Z,18.20
2018-04-23T18:41:17.655Z,18.10
2018-04-23T18:43:45.180Z,18.00
2018-04-23T18:46:12.721Z,18.10
2018-04-23T18:48:40.238Z,18.00
2018-04-23T18:51:07.826Z,18.00
2018-04-23T18:53:35.373Z,18.00
2018-04-23T18:56:02.931Z,17.90
2018-04-23T18:58:31.212Z,18.00
2018-04-23T19:00:59.513Z,17.90
2018-04-23T19:03:27.032Z,17.90
2018-04-23T19:05:54.601Z,17.90
2018-04-23T19:08:22.122Z,17.90
2018-04-23T19:10:50.413Z,17.90
2018-04-23T19:13:18.695Z,17.90
2018-04-23T19:15:46.989Z,17.80
2018-04-23T19:18:14.519Z,17.80
2018-04-23T19:20:42.060Z,17.80
2018-04-23T19:25:55.226Z,17.70
2018-04-23T19:28:22.760Z,17.70
2018-04-23T19:30:51.067Z,17.60
2018-04-23T19:33:19.370Z,17.50
2018-04-23T19:35:47.836Z,17.50
2018-04-23T19:38:15.305Z,17.50
2018-04-23T19:40:42.843Z,17.50
2018-04-23T19:43:10.386Z,17.50
2018-04-23T19:45:37.911Z,17.40
2018-04-23T19:48:05.442Z,17.40
2018-04-23T19:50:32.993Z,17.40
2018-04-23T19:53:00.525Z,17.30
2018-04-23T19:55:28.226Z,17.30
2018-04-23T19:57:55.763Z,17.20
2018-04-23T20:00:23.326Z,17.20
2018-04-23T20:02:50.857Z,17.10
2018-04-23T20:05:18.375Z,17.10
2018-04-23T20:07:45.911Z,17.10
2018-04-23T20:10:13.442Z,17.10
2018-04-23T20:12:41.735Z,17.00
2018-04-23T20:15:10.017Z,16.90
2018-04-23T20:17:37.565Z,16.90
2018-04-23T20:20:05.073Z,16.90
2018-04-23T20:22:33.401Z,16.90
2018-04-23T20:25:00.908Z,16.80
2018-04-23T20:27:28.436Z,16.90
2018-04-23T20:29:55.962Z,16.90
2018-04-23T20:32:24.262Z,16.80
2018-04-23T20:34:52.538Z,16.70
2018-04-23T20:37:21.357Z,16.70
2018-04-23T20:39:48.878Z,16.70
2018-04-23T20:42:16.418Z,16.60
2018-04-23T20:44:43.934Z,16.60
2018-04-23T20:47:11.496Z,16.50
2018-04-23T20:49:39.784Z,16.50
2018-04-23T20:52:07.325Z,16.50
2018-04-23T20:54:34.833Z,16.40
2018-04-23T20:57:02.361Z,16.30
2018-04-23T20:59:29.931Z,16.30
2018-04-23T21:01:57.438Z,16.30
2018-04-23T21:04:24.956Z,16.30
2018-04-23T21:06:53.233Z,16.30
2018-04-23T21:09:20.831Z,16.30
2018-04-23T21:11:49.112Z,16.30
2018-04-23T21:14:17.445Z,16.40
2018-04-23T21:16:44.968Z,16.40
2018-04-23T21:19:13.262Z,16.40
2018-04-23T21:21:41.532Z,16.40
2018-04-23T21:24:09.057Z,16.30
2018-04-23T21:26:36.592Z,16.40
2018-04-23T21:29:04.918Z,16.40
2018-04-23T21:31:32.439Z,16.30
2018-04-23T21:33:59.973Z,16.30
2018-04-23T21:36:27.474Z,16.30
2018-04-23T21:38:55.012Z,16.20
2018-04-23T21:41:22.527Z,16.20
2018-04-23T21:43:50.069Z,16.10
2018-04-23T21:46:17.584Z,16.10
2018-04-23T21:48:45.881Z,15.90
2018-04-23T21:51:14.156Z,15.80
2018-04-23T21:53:41.708Z,15.80
2018-04-23T21:56:09.223Z,15.70
2018-04-23T21:58:36.757Z,15.60
2018-04-23T22:01:04.261Z,15.60
2018-04-23T22:03:32.550Z,15.60
2018-04-23T22:06:00.820Z,15.40
2018-04-23T22:08:29.144Z,15.40
2018-04-23T22:10:56.658Z,15.30
2018-04-23T22:13:24.432Z,15.40
2018-04-23T22:15:51.960Z,15.30
2018-04-23T22:18:19.548Z,15.30
2018-04-23T22:20:47.026Z,15.30
2018-04-23T22:23:14.531Z,15.20
2018-04-23T22:25:42.085Z,15.20
2018-04-23T22:28:09.594Z,15.20
2018-04-23T22:30:37.900Z,15.20
2018-04-23T22:33:05.421Z,15.10
2018-04-23T22:35:32.952Z,15.10
2018-04-23T22:38:00.461Z,15.10
2018-04-23T22:40:27.990Z,15.00
2018-04-23T22:42:55.498Z,15.00
2018-04-23T22:45:23.039Z,15.00
2018-04-23T22:47:50.562Z,14.90
2018-04-23T22:50:18.098Z,14.80
2018-04-23T22:52:45.621Z,14.70
2018-04-23T22:55:13.927Z,14.70
2018-04-23T22:57:41.445Z,14.70
2018-04-23T23:00:08.980Z,14.60
2018-04-23T23:02:36.521Z,14.60
2018-04-23T23:05:04.065Z,14.50
2018-04-23T23:07:31.608Z,14.50
2018-04-23T23:09:59.150Z,14.50
2018-04-23T23:12:27.451Z,14.40
2018-04-23T23:14:54.997Z,14.40
2018-04-23T23:17:22.517Z,14.30
2018-04-23T23:19:50.063Z,14.30
2018-04-23T23:22:18.356Z,14.30
2018-04-23T23:24:45.900Z,14.30
2018-04-23T23:27:13.406Z,14.30
2018-04-23T23:29:40.950Z,14.30
2018-04-23T23:32:08.475Z,14.20
2018-04-23T23:34:35.975Z,14.30
2018-04-23T23:37:03.518Z,14.20
2018-04-23T23:39:31.039Z,14.10
2018-04-23T23:41:59.335Z,14.10
2018-04-23T23:44:27.610Z,14.10
2018-04-23T23:46:55.167Z,14.10
2018-04-23T23:49:22.680Z,14.20
2018-04-23T23:51:50.218Z,14.20
2018-04-23T23:54:17.733Z,14.30
2018-04-23T23:56:45.264Z,14.20
2018-04-23T23:59:13.733Z,14.20
